Whiteface, Minnesota
Current Conditions -  °F | °C
As of 11:31 AM on Friday 21 Nov 2014 (Local Time) from KEVM Reporting Station
Scattered Clouds Scattered Clouds  
Wind Chill: 12°   Ceiling: Unl
Heat Index: 25°   Visibility: 10mi
Dew Point: 14°   Wind: 16mph
Humidity: 64%   Direction: 190°S
Pressure: 29.92"   Gusts: 25mph
Location:  47.2457°N, 92.4531°W
Report Text: KEVM 211731Z AUTO 19014G22KT 10SM SCT085 M04/M10 A2992 RMK AO2
Loading
Personal Weather Stations






























Interactive Weather Map New forecast layout! Learn more

10-Day Weather Forecast

Advertisements
Track Severe Weather on mobile